createdAt,value
2018-11-02T00:01:25.502Z,10.80
2018-11-02T00:03:53.673Z,11.07
2018-11-02T00:06:21.855Z,11.10
2018-11-02T00:08:50.533Z,11.77
2018-11-02T00:11:19.546Z,11.17
2018-11-02T00:13:48.148Z,12.17
2018-11-02T00:16:16.308Z,12.40
2018-11-02T00:18:44.464Z,12.93
2018-11-02T00:21:12.625Z,12.73
2018-11-02T00:23:40.760Z,12.87
2018-11-02T00:26:08.977Z,12.17
2018-11-02T00:28:37.117Z,12.50
2018-11-02T00:31:05.482Z,12.03
2018-11-02T00:33:33.616Z,12.10
2018-11-02T00:36:01.752Z,12.40
2018-11-02T00:38:29.900Z,11.87
2018-11-02T00:40:58.036Z,12.37
2018-11-02T00:43:26.169Z,12.97
2018-11-02T00:45:54.324Z,13.57
2018-11-02T00:48:22.427Z,13.07
2018-11-02T00:50:50.614Z,12.67
2018-11-02T00:53:18.730Z,11.40
2018-11-02T00:55:46.833Z,12.70
2018-11-02T00:58:15.184Z,12.60
2018-11-02T01:00:43.421Z,13.17
2018-11-02T01:03:11.723Z,12.83
2018-11-02T01:05:40.258Z,12.77
2018-11-02T01:08:08.448Z,12.97
2018-11-02T01:10:36.599Z,12.10
2018-11-02T01:13:04.713Z,13.93
2018-11-02T01:15:32.863Z,12.90
2018-11-02T01:18:00.988Z,12.13
2018-11-02T01:20:29.117Z,12.87
2018-11-02T01:22:57.252Z,12.47
2018-11-02T01:25:25.427Z,12.23
2018-11-02T01:27:53.546Z,12.03
2018-11-02T01:30:21.677Z,12.87
2018-11-02T01:32:49.780Z,12.70
2018-11-02T01:35:17.934Z,12.63
2018-11-02T01:37:46.113Z,12.60
2018-11-02T01:40:14.254Z,12.63
2018-11-02T01:42:42.373Z,13.33
2018-11-02T01:45:10.568Z,13.03
2018-11-02T01:47:38.732Z,13.03
2018-11-02T01:50:06.944Z,12.07
2018-11-02T01:52:35.056Z,13.10
2018-11-02T01:55:03.209Z,12.30
2018-11-02T01:57:31.316Z,12.00
2018-11-02T01:59:59.459Z,11.80
2018-11-02T02:02:27.563Z,12.07
2018-11-02T02:04:55.716Z,11.07
2018-11-02T02:07:23.856Z,11.63
2018-11-02T02:09:52.097Z,10.83
2018-11-02T02:12:20.263Z,11.70
2018-11-02T02:14:48.421Z,11.30
2018-11-02T02:17:16.484Z,11.27
2018-11-02T02:19:44.602Z,11.10
2018-11-02T02:22:12.698Z,11.00
2018-11-02T02:24:40.854Z,11.43
2018-11-02T02:27:09.006Z,11.43
2018-11-02T02:29:37.139Z,11.20
2018-11-02T02:32:05.280Z,11.93
2018-11-02T02:34:33.396Z,10.80
2018-11-02T02:37:01.525Z,10.90
2018-11-02T02:39:29.662Z,11.10
2018-11-02T02:41:57.799Z,11.90
2018-11-02T02:44:25.925Z,11.10
2018-11-02T02:46:54.022Z,10.77
2018-11-02T02:49:22.124Z,11.97
2018-11-02T02:51:50.225Z,11.87
2018-11-02T02:54:18.333Z,10.83
2018-11-02T02:56:46.596Z,12.33
2018-11-02T02:59:14.718Z,11.30
2018-11-02T03:01:42.845Z,12.13
2018-11-02T03:04:10.975Z,11.80
2018-11-02T03:06:39.164Z,11.53
2018-11-02T03:09:07.800Z,13.00
2018-11-02T03:11:36.276Z,11.27
2018-11-02T03:14:04.833Z,11.67
2018-11-02T03:16:33.026Z,11.87
2018-11-02T03:19:01.198Z,12.53
2018-11-02T03:21:29.369Z,11.80
2018-11-02T03:23:57.499Z,12.50
2018-11-02T03:26:25.604Z,11.37
2018-11-02T03:28:53.703Z,11.87
2018-11-02T03:31:21.835Z,12.30
2018-11-02T03:33:49.973Z,11.40
2018-11-02T03:36:18.075Z,11.80
2018-11-02T03:38:46.190Z,11.83
2018-11-02T03:41:14.283Z,12.20
2018-11-02T03:43:42.450Z,11.00
2018-11-02T03:46:10.566Z,11.77
2018-11-02T03:48:38.687Z,12.17
2018-11-02T03:51:06.807Z,11.60
2018-11-02T03:53:34.896Z,10.53
2018-11-02T03:56:03.040Z,11.20
2018-11-02T03:58:31.171Z,11.90
2018-11-02T04:00:59.305Z,11.13
2018-11-02T04:03:27.450Z,11.90
2018-11-02T04:05:55.571Z,10.03
2018-11-02T04:08:23.735Z,10.27
2018-11-02T04:10:51.940Z,11.63
2018-11-02T04:13:20.365Z,10.90
2018-11-02T04:15:48.591Z,10.97
2018-11-02T04:18:16.695Z,11.30
2018-11-02T04:20:44.977Z,11.47
2018-11-02T04:23:13.137Z,12.57
2018-11-02T04:25:41.289Z,12.10
2018-11-02T04:28:09.449Z,12.17
2018-11-02T04:30:37.654Z,11.67
2018-11-02T04:33:05.833Z,11.43
2018-11-02T04:35:34.022Z,11.10
2018-11-02T04:38:02.130Z,11.43
2018-11-02T04:40:30.273Z,11.87
2018-11-02T04:42:58.405Z,12.60
2018-11-02T04:45:31.992Z,12.20
2018-11-02T04:48:00.542Z,12.33
2018-11-02T04:50:28.671Z,12.93
2018-11-02T04:52:56.757Z,12.90
2018-11-02T04:55:24.856Z,11.83
2018-11-02T04:57:53.005Z,13.03
2018-11-02T05:00:21.099Z,12.97
2018-11-02T05:02:49.254Z,12.07
2018-11-02T05:05:17.413Z,12.70
2018-11-02T05:07:45.609Z,11.93
2018-11-02T05:10:13.693Z,13.17
2018-11-02T05:12:41.801Z,12.90
2018-11-02T05:15:09.917Z,12.77
2018-11-02T05:17:38.097Z,14.13
2018-11-02T05:20:06.851Z,13.93
2018-11-02T05:22:34.949Z,13.77
2018-11-02T05:25:03.231Z,13.57
2018-11-02T05:27:31.400Z,13.40
2018-11-02T05:29:59.564Z,13.57
2018-11-02T05:32:27.691Z,13.40
2018-11-02T05:34:55.826Z,12.53
2018-11-02T05:37:23.995Z,12.67
2018-11-02T05:39:52.160Z,12.37
2018-11-02T05:42:20.377Z,12.63
2018-11-02T05:44:48.872Z,12.67
2018-11-02T05:47:17.099Z,11.80
2018-11-02T05:49:45.165Z,11.87
2018-11-02T05:52:13.338Z,12.37
2018-11-02T05:54:41.679Z,12.67
2018-11-02T05:57:10.057Z,11.30
2018-11-02T05:59:38.201Z,11.70
2018-11-02T06:02:06.553Z,11.40
2018-11-02T06:04:34.689Z,11.43
2018-11-02T06:07:02.857Z,11.30
2018-11-02T06:09:30.976Z,11.67
2018-11-02T06:11:59.142Z,11.40
2018-11-02T06:14:27.213Z,10.67
2018-11-02T06:16:55.469Z,11.07
2018-11-02T06:19:23.574Z,11.40
2018-11-02T06:21:51.707Z,11.30
2018-11-02T06:24:19.904Z,11.40
2018-11-02T06:26:47.927Z,10.73
2018-11-02T06:29:16.111Z,10.73
2018-11-02T06:31:44.256Z,11.90
2018-11-02T06:34:12.381Z,11.10
2018-11-02T06:36:40.519Z,11.17
2018-11-02T06:39:09.661Z,11.53
2018-11-02T06:41:37.783Z,11.00
2018-11-02T06:44:05.969Z,10.63
2018-11-02T06:46:34.141Z,11.23
2018-11-02T06:49:02.298Z,11.10
2018-11-02T06:51:30.482Z,10.30
2018-11-02T06:53:58.569Z,10.93
2018-11-02T06:56:26.744Z,9.93
2018-11-02T06:58:54.899Z,9.93
2018-11-02T07:01:23.027Z,10.67
2018-11-02T07:03:52.029Z,10.90
2018-11-02T07:06:20.177Z,10.47
2018-11-02T07:08:48.321Z,10.57
2018-11-02T07:11:16.486Z,10.03
2018-11-02T07:13:44.697Z,10.77
2018-11-02T07:16:12.849Z,9.90
2018-11-02T07:18:40.949Z,9.87
2018-11-02T07:21:09.095Z,9.20
2018-11-02T07:23:37.247Z,8.97
2018-11-02T07:26:05.431Z,9.27
2018-11-02T07:28:33.521Z,9.07
2018-11-02T07:31:01.652Z,8.80
2018-11-02T07:33:29.837Z,8.83
2018-11-02T07:35:57.985Z,9.10
2018-11-02T07:38:26.143Z,10.53
2018-11-02T07:40:54.254Z,9.83
2018-11-02T07:43:22.405Z,9.83
2018-11-02T07:45:50.579Z,9.57
2018-11-02T07:48:18.703Z,9.13
2018-11-02T07:50:46.841Z,9.20
2018-11-02T07:53:14.981Z,8.77
2018-11-02T07:55:43.117Z,9.47
2018-11-02T07:58:11.255Z,9.17
2018-11-02T08:00:39.435Z,9.27
2018-11-02T08:03:07.616Z,9.37
2018-11-02T08:05:37.299Z,9.00
2018-11-02T08:08:05.422Z,9.30
2018-11-02T08:10:33.572Z,9.23
2018-11-02T08:13:01.774Z,8.90
2018-11-02T08:15:29.912Z,9.20
2018-11-02T08:17:58.034Z,8.93
2018-11-02T08:20:26.141Z,9.47
2018-11-02T08:22:54.270Z,8.87
2018-11-02T08:25:22.379Z,9.10
2018-11-02T08:27:50.541Z,8.43
2018-11-02T08:30:18.676Z,8.60
2018-11-02T08:32:46.837Z,8.40
2018-11-02T08:35:14.968Z,9.37
2018-11-02T08:37:43.121Z,9.80
2018-11-02T08:40:12.464Z,8.90
2018-11-02T08:42:40.902Z,9.40
2018-11-02T08:45:09.572Z,9.27
2018-11-02T08:47:37.824Z,9.17
2018-11-02T08:50:06.686Z,9.47
2018-11-02T08:52:34.840Z,9.60
2018-11-02T08:55:02.937Z,9.33
2018-11-02T08:57:31.054Z,9.37
2018-11-02T08:59:59.281Z,9.93
2018-11-02T09:02:27.478Z,9.47
2018-11-02T09:04:55.695Z,9.80
2018-11-02T09:07:23.850Z,9.60
2018-11-02T09:09:52.068Z,9.33
2018-11-02T09:12:20.271Z,9.83
2018-11-02T09:14:48.432Z,9.73
2018-11-02T09:17:16.579Z,9.83
2018-11-02T09:19:44.695Z,9.87
2018-11-02T09:22:12.880Z,10.37
2018-11-02T09:24:41.060Z,10.90
2018-11-02T09:27:09.282Z,10.80
2018-11-02T09:29:37.367Z,10.67
2018-11-02T09:32:05.560Z,10.53
2018-11-02T09:34:33.677Z,11.37
2018-11-02T09:37:01.902Z,11.30
2018-11-02T09:39:30.068Z,11.03
2018-11-02T09:41:58.280Z,11.90
2018-11-02T09:44:26.437Z,12.30
2018-11-02T09:46:54.618Z,12.80
2018-11-02T09:49:22.890Z,12.73
2018-11-02T09:51:51.123Z,12.37
2018-11-02T09:54:19.508Z,12.47
2018-11-02T09:56:47.682Z,12.93
2018-11-02T09:59:15.852Z,13.63
2018-11-02T10:01:44.030Z,12.80
2018-11-02T10:04:12.143Z,13.30
2018-11-02T10:06:40.302Z,12.90
2018-11-02T10:09:09.651Z,12.57
2018-11-02T10:11:37.778Z,13.00
2018-11-02T10:14:05.908Z,13.17
2018-11-02T10:16:34.074Z,12.77
2018-11-02T10:19:02.215Z,12.07
2018-11-02T10:21:30.420Z,12.80
2018-11-02T10:23:58.661Z,12.37
2018-11-02T10:26:26.706Z,11.67
2018-11-02T10:28:54.825Z,12.10
2018-11-02T10:31:23.051Z,11.93
2018-11-02T10:33:51.232Z,11.97
2018-11-02T10:36:19.424Z,12.77
2018-11-02T10:38:47.581Z,12.00
2018-11-02T10:41:17.675Z,12.07
2018-11-02T10:43:45.821Z,11.97
2018-11-02T10:46:14.062Z,13.37
2018-11-02T10:48:42.193Z,12.40
2018-11-02T10:51:10.334Z,13.23
2018-11-02T10:53:38.412Z,13.03
2018-11-02T10:56:06.515Z,12.87
2018-11-02T10:58:34.580Z,13.30
2018-11-02T11:01:08.461Z,13.53
2018-11-02T11:03:36.395Z,12.50
2018-11-02T11:06:04.940Z,12.67
2018-11-02T11:08:33.122Z,12.70
2018-11-02T11:11:01.234Z,12.27
2018-11-02T11:13:29.664Z,11.30
2018-11-02T11:15:57.574Z,11.77
2018-11-02T11:18:25.685Z,11.20
2018-11-02T11:20:53.839Z,11.10
2018-11-02T11:23:22.000Z,11.00
2018-11-02T11:25:50.130Z,11.00
2018-11-02T11:28:18.301Z,10.97
2018-11-02T11:30:46.436Z,9.40
2018-11-02T11:33:14.626Z,10.47
2018-11-02T11:35:42.758Z,9.90
2018-11-02T11:38:10.987Z,10.20
2018-11-02T11:40:39.121Z,10.40
2018-11-02T11:43:07.195Z,10.60
2018-11-02T11:45:35.326Z,10.50
2018-11-02T11:48:03.471Z,9.93
2018-11-02T11:50:31.560Z,10.93
2018-11-02T11:52:59.723Z,11.80
2018-11-02T11:55:27.908Z,10.83
2018-11-02T11:57:55.997Z,10.37
2018-11-02T12:00:24.228Z,10.63
2018-11-02T12:02:53.094Z,10.57
2018-11-02T12:05:22.386Z,11.00
2018-11-02T12:07:50.532Z,10.27
2018-11-02T12:10:19.406Z,9.43
2018-11-02T12:12:47.481Z,9.90
2018-11-02T12:15:16.952Z,9.30
2018-11-02T12:17:45.787Z,9.80
2018-11-02T12:20:15.671Z,9.90
2018-11-02T12:22:44.383Z,10.17
2018-11-02T12:25:13.399Z,9.80
2018-11-02T12:27:41.514Z,9.57
2018-11-02T12:30:10.897Z,10.70
2018-11-02T12:32:39.014Z,11.00
2018-11-02T12:35:08.045Z,10.23
2018-11-02T12:37:36.238Z,8.70
2018-11-02T12:40:05.485Z,9.53
2018-11-02T12:42:33.621Z,9.63
2018-11-02T12:45:01.791Z,10.03
2018-11-02T12:47:30.043Z,10.10
2018-11-02T12:49:58.263Z,9.63
2018-11-02T12:52:26.358Z,9.70
2018-11-02T12:54:54.503Z,10.60
2018-11-02T12:57:22.689Z,10.30
2018-11-02T12:59:50.807Z,10.13
2018-11-02T13:02:18.965Z,9.97
2018-11-02T13:04:47.074Z,9.83
2018-11-02T13:07:15.181Z,9.53
2018-11-02T13:09:43.413Z,9.23
2018-11-02T13:12:11.552Z,9.67
2018-11-02T13:14:39.697Z,10.00
2018-11-02T13:17:07.794Z,10.17
2018-11-02T13:19:35.883Z,10.00
2018-11-02T13:22:04.076Z,10.10
2018-11-02T13:24:32.188Z,10.33
2018-11-02T13:27:00.461Z,9.30
2018-11-02T13:29:28.557Z,10.33
2018-11-02T13:31:56.890Z,10.43
2018-11-02T13:34:24.929Z,10.30
2018-11-02T13:36:53.116Z,10.63
2018-11-02T13:39:21.233Z,10.17
2018-11-02T13:41:49.359Z,11.67
2018-11-02T13:44:17.476Z,10.97
2018-11-02T13:46:45.664Z,10.13
2018-11-02T13:49:13.791Z,10.87
2018-11-02T13:51:41.903Z,11.23
2018-11-02T13:54:10.074Z,11.80
2018-11-02T13:56:38.186Z,11.80
2018-11-02T13:59:06.348Z,11.57
2018-11-02T14:01:34.458Z,11.00
2018-11-02T14:04:02.839Z,10.97
2018-11-02T14:06:30.964Z,10.50
2018-11-02T14:08:59.132Z,10.50
2018-11-02T14:11:27.315Z,9.70
2018-11-02T14:13:55.463Z,10.67
2018-11-02T14:16:23.589Z,10.50
2018-11-02T14:18:51.695Z,10.37
2018-11-02T14:21:19.818Z,9.77
2018-11-02T14:23:47.941Z,9.30
2018-11-02T14:26:16.078Z,10.03
2018-11-02T14:28:44.257Z,10.23
2018-11-02T14:31:12.376Z,9.87
2018-11-02T14:33:40.587Z,10.00
2018-11-02T14:36:08.744Z,10.03
2018-11-02T14:38:36.857Z,9.97
2018-11-02T14:41:05.616Z,9.90
2018-11-02T14:43:33.609Z,10.53
2018-11-02T14:46:01.745Z,9.47
2018-11-02T14:48:29.844Z,8.53
2018-11-02T14:50:57.950Z,7.70
2018-11-02T14:53:26.078Z,8.20
2018-11-02T14:55:54.169Z,7.90
2018-11-02T14:58:22.287Z,8.23
2018-11-02T15:00:50.424Z,8.90
2018-11-02T15:03:18.591Z,8.53
2018-11-02T15:05:46.698Z,8.93
2018-11-02T15:08:14.861Z,9.27
2018-11-02T15:10:42.960Z,8.87
2018-11-02T15:13:11.115Z,9.27
2018-11-02T15:15:39.262Z,9.53
2018-11-02T15:18:07.359Z,9.97
2018-11-02T15:20:35.517Z,9.07
2018-11-02T15:23:03.654Z,9.40
2018-11-02T15:25:31.813Z,7.83
2018-11-02T15:27:59.959Z,7.63
2018-11-02T15:30:28.136Z,7.17
2018-11-02T15:32:56.284Z,8.00
2018-11-02T15:35:24.434Z,6.80
2018-11-02T15:37:52.531Z,7.40
2018-11-02T15:40:20.737Z,7.57
2018-11-02T15:42:48.849Z,7.60
2018-11-02T15:45:16.987Z,8.30
2018-11-02T15:47:45.595Z,8.57
2018-11-02T15:50:13.752Z,8.67
2018-11-02T15:52:41.957Z,9.23
2018-11-02T15:55:11.355Z,9.30
2018-11-02T15:57:39.554Z,8.10
2018-11-02T16:00:13.859Z,8.50
2018-11-02T16:02:42.079Z,9.17
2018-11-02T16:05:10.852Z,8.97
2018-11-02T16:07:39.338Z,9.17
2018-11-02T16:10:08.124Z,9.47
2018-11-02T16:12:36.215Z,9.03
2018-11-02T16:15:04.821Z,9.60
2018-11-02T16:17:32.935Z,9.30
2018-11-02T16:20:01.095Z,8.73
2018-11-02T16:22:29.585Z,10.23
2018-11-02T16:24:57.744Z,10.37
2018-11-02T16:27:25.855Z,9.97
2018-11-02T16:29:53.984Z,9.17
2018-11-02T16:32:22.042Z,11.00
2018-11-02T16:34:50.243Z,9.67
2018-11-02T16:37:18.385Z,9.40
2018-11-02T16:39:46.717Z,10.33
2018-11-02T16:42:14.897Z,9.73
2018-11-02T16:44:43.070Z,9.37
2018-11-02T16:47:11.130Z,9.97
2018-11-02T16:49:39.268Z,10.93
2018-11-02T16:52:07.450Z,11.33
2018-11-02T16:54:35.671Z,10.83
2018-11-02T16:57:03.825Z,10.43
2018-11-02T16:59:32.021Z,11.60
2018-11-02T17:02:00.141Z,10.70
2018-11-02T17:04:28.383Z,12.30
2018-11-02T17:06:56.485Z,12.33
2018-11-02T17:09:24.658Z,12.93
2018-11-02T17:11:52.775Z,13.37
2018-11-02T17:14:20.905Z,13.30
2018-11-02T17:16:49.066Z,13.97
2018-11-02T17:19:17.203Z,23.77
2018-11-02T17:21:45.429Z,28.13
2018-11-02T17:24:13.588Z,33.47
2018-11-02T17:26:41.734Z,35.30
2018-11-02T17:29:10.177Z,31.83
2018-11-02T17:31:38.276Z,20.20
2018-11-02T17:34:06.505Z,15.77
2018-11-02T17:36:34.717Z,14.77
2018-11-02T17:39:03.564Z,14.30
2018-11-02T17:41:31.796Z,14.80
2018-11-02T17:43:59.944Z,13.00
2018-11-02T17:46:28.082Z,11.07
2018-11-02T17:48:56.262Z,10.90
2018-11-02T17:51:24.428Z,10.43
2018-11-02T17:53:52.530Z,10.37
2018-11-02T17:56:20.744Z,10.43
2018-11-02T17:58:48.872Z,11.30
2018-11-02T18:01:17.085Z,11.87
2018-11-02T18:03:45.220Z,11.67
2018-11-02T18:06:13.574Z,9.73
2018-11-02T18:08:41.638Z,7.50
2018-11-02T18:11:09.773Z,6.07
2018-11-02T18:13:37.883Z,5.00
2018-11-02T18:16:06.106Z,4.70
2018-11-02T18:18:34.312Z,4.63
2018-11-02T18:21:02.462Z,4.10
2018-11-02T18:23:30.613Z,4.10
2018-11-02T18:25:58.694Z,4.23
2018-11-02T18:28:26.789Z,3.50
2018-11-02T18:30:54.923Z,4.50
2018-11-02T18:33:23.053Z,3.93
2018-11-02T18:35:51.220Z,4.47
2018-11-02T18:38:19.398Z,3.87
2018-11-02T18:40:47.524Z,3.90
2018-11-02T18:43:15.609Z,3.93
2018-11-02T18:45:43.762Z,4.17
2018-11-02T18:48:11.881Z,3.97
2018-11-02T18:50:40.012Z,3.67
2018-11-02T18:53:08.171Z,4.23
2018-11-02T18:55:36.370Z,3.93
2018-11-02T18:58:04.515Z,4.00
2018-11-02T19:00:32.623Z,4.13
2018-11-02T19:03:00.793Z,4.13
2018-11-02T19:05:28.965Z,4.20
2018-11-02T19:07:57.051Z,3.73
2018-11-02T19:10:25.206Z,3.60
2018-11-02T19:12:53.267Z,4.40
2018-11-02T19:15:21.472Z,4.90
2018-11-02T19:17:49.619Z,4.40
2018-11-02T19:20:17.769Z,4.03
2018-11-02T19:22:46.103Z,4.03
2018-11-02T19:25:15.159Z,4.10
2018-11-02T19:27:44.039Z,3.57
2018-11-02T19:30:12.948Z,3.80
2018-11-02T19:32:41.128Z,4.03
2018-11-02T19:35:10.261Z,3.77
2018-11-02T19:37:38.189Z,3.40
2018-11-02T19:40:07.247Z,3.97
2018-11-02T19:42:35.378Z,4.20
2018-11-02T19:45:03.552Z,3.57
2018-11-02T19:47:37.099Z,3.63
2018-11-02T19:50:06.202Z,3.80
2018-11-02T19:52:34.357Z,3.77
2018-11-02T19:55:02.494Z,3.47
2018-11-02T19:57:30.718Z,4.00
2018-11-02T19:59:58.817Z,3.43
2018-11-02T20:02:26.955Z,3.80
2018-11-02T20:04:55.288Z,4.30
2018-11-02T20:07:23.465Z,4.20
2018-11-02T20:09:51.617Z,4.20
2018-11-02T20:12:19.770Z,4.30
2018-11-02T20:14:47.933Z,3.70
2018-11-02T20:17:16.101Z,4.20
2018-11-02T20:19:44.232Z,4.30
2018-11-02T20:22:12.361Z,4.30
2018-11-02T20:24:40.526Z,4.53
2018-11-02T20:27:08.636Z,4.70
2018-11-02T20:29:36.787Z,4.60
2018-11-02T20:32:05.134Z,4.87
2018-11-02T20:34:33.208Z,5.10
2018-11-02T20:37:02.160Z,5.20
2018-11-02T20:39:30.367Z,5.43
2018-11-02T20:41:58.485Z,5.07
2018-11-02T20:44:26.623Z,5.20
2018-11-02T20:46:54.747Z,4.63
2018-11-02T20:49:22.858Z,4.97
2018-11-02T20:51:51.011Z,4.57
2018-11-02T20:54:19.094Z,4.83
2018-11-02T20:56:47.244Z,5.13
2018-11-02T20:59:15.406Z,5.17
2018-11-02T21:01:43.549Z,4.80
2018-11-02T21:04:11.678Z,4.67
2018-11-02T21:06:39.816Z,5.00
2018-11-02T21:09:09.116Z,5.00
2018-11-02T21:11:37.282Z,5.40
2018-11-02T21:14:05.499Z,5.57
2018-11-02T21:16:33.608Z,4.77
2018-11-02T21:19:01.759Z,4.97
2018-11-02T21:21:29.997Z,5.50
2018-11-02T21:23:58.146Z,4.67
2018-11-02T21:26:26.278Z,5.43
2018-11-02T21:28:54.479Z,5.47
2018-11-02T21:31:22.617Z,4.80
2018-11-02T21:33:50.805Z,4.87
2018-11-02T21:36:18.955Z,5.27
2018-11-02T21:38:50.220Z,5.30
2018-11-02T21:41:18.327Z,5.33
2018-11-02T21:43:46.461Z,5.00
2018-11-02T21:46:14.569Z,5.57
2018-11-02T21:48:42.795Z,4.97
2018-11-02T21:51:10.909Z,5.40
2018-11-02T21:53:39.170Z,5.50
2018-11-02T21:56:07.197Z,6.20
2018-11-02T21:58:35.451Z,5.20
2018-11-02T22:01:03.521Z,5.20
2018-11-02T22:03:31.632Z,5.53
2018-11-02T22:05:59.887Z,5.00
2018-11-02T22:08:27.908Z,5.83
2018-11-02T22:10:56.031Z,5.37
2018-11-02T22:13:24.141Z,5.57
2018-11-02T22:15:52.309Z,5.30
2018-11-02T22:18:20.460Z,5.53
2018-11-02T22:20:48.625Z,5.20
2018-11-02T22:23:16.734Z,5.23
2018-11-02T22:25:44.809Z,5.23
2018-11-02T22:28:12.943Z,5.53
2018-11-02T22:30:41.070Z,4.80
2018-11-02T22:33:09.201Z,5.17
2018-11-02T22:35:37.313Z,4.80
2018-11-02T22:38:05.459Z,5.93
2018-11-02T22:40:33.588Z,5.23
2018-11-02T22:43:01.712Z,5.70
2018-11-02T22:45:29.841Z,5.20
2018-11-02T22:48:03.545Z,5.20
2018-11-02T22:50:31.675Z,4.97
2018-11-02T22:52:59.788Z,5.07
2018-11-02T22:55:27.872Z,4.70
2018-11-02T22:57:55.960Z,4.67
2018-11-02T23:00:24.211Z,4.50
2018-11-02T23:02:52.291Z,4.70
2018-11-02T23:05:20.434Z,5.27
2018-11-02T23:07:48.594Z,4.33
2018-11-02T23:10:16.692Z,5.27
2018-11-02T23:12:44.830Z,4.37
2018-11-02T23:15:13.342Z,5.37
2018-11-02T23:17:41.492Z,5.00
2018-11-02T23:20:11.164Z,4.20
2018-11-02T23:22:39.283Z,4.50
2018-11-02T23:25:08.464Z,4.07
2018-11-02T23:27:36.652Z,4.43
2018-11-02T23:30:05.794Z,4.60
2018-11-02T23:32:33.838Z,4.63
2018-11-02T23:35:02.001Z,4.20
2018-11-02T23:37:30.127Z,4.60
2018-11-02T23:39:58.225Z,3.90
2018-11-02T23:42:26.348Z,4.10
2018-11-02T23:44:54.528Z,4.60
2018-11-02T23:47:22.639Z,4.20
2018-11-02T23:49:50.850Z,3.90
2018-11-02T23:52:19.006Z,4.13
2018-11-02T23:54:47.193Z,4.60
2018-11-02T23:57:15.282Z,3.87
2018-11-02T23:59:43.387Z,4.63
